createdAt,value
2024-05-09T00:00:45.280Z,79.39
2024-05-09T00:03:12.928Z,79.44
2024-05-09T00:05:41.090Z,79.74
2024-05-09T00:08:09.333Z,80.26
2024-05-09T00:10:38.725Z,80.15
2024-05-09T00:13:08.014Z,79.98
2024-05-09T00:15:38.849Z,79.94
2024-05-09T00:18:07.660Z,79.44
2024-05-09T00:20:39.682Z,80.45
2024-05-09T00:23:11.112Z,79.98
2024-05-09T00:25:39.485Z,80.38
2024-05-09T00:28:06.984Z,80.28
2024-05-09T00:30:37.565Z,80.69
2024-05-09T00:33:07.178Z,80.95
2024-05-09T00:35:36.059Z,81.07
2024-05-09T00:38:04.516Z,81.05
2024-05-09T00:40:39.144Z,81.22
2024-05-09T00:43:09.963Z,81.68
2024-05-09T00:45:40.072Z,81.23
2024-05-09T00:48:11.054Z,81.92
2024-05-09T00:50:42.682Z,81.77
2024-05-09T00:53:12.673Z,81.55
2024-05-09T00:55:40.812Z,81.90
2024-05-09T00:58:12.178Z,82.08
2024-05-09T01:00:43.271Z,82.18
2024-05-09T01:03:12.710Z,81.32
2024-05-09T01:05:42.651Z,81.85
2024-05-09T01:08:11.953Z,82.20
2024-05-09T01:10:42.818Z,82.07
2024-05-09T01:13:12.607Z,82.26
2024-05-09T01:15:43.496Z,82.34
2024-05-09T01:18:12.614Z,82.50
2024-05-09T01:20:44.010Z,82.25
2024-05-09T01:23:16.433Z,82.51
2024-05-09T01:25:45.605Z,82.61
2024-05-09T01:28:13.967Z,82.43
2024-05-09T01:30:41.271Z,82.63
2024-05-09T01:33:10.687Z,82.02
2024-05-09T01:35:42.013Z,82.62
2024-05-09T01:38:13.100Z,82.63
2024-05-09T01:40:43.991Z,82.34
2024-05-09T01:43:12.151Z,82.40
2024-05-09T01:45:40.624Z,82.27
2024-05-09T01:48:09.497Z,82.71
2024-05-09T01:50:40.871Z,82.75
2024-05-09T01:53:11.361Z,82.91
2024-05-09T01:55:39.260Z,82.61
2024-05-09T01:58:09.425Z,82.50
2024-05-09T02:00:41.086Z,82.79
2024-05-09T02:03:14.386Z,82.98
2024-05-09T02:05:45.766Z,82.43
2024-05-09T02:08:15.604Z,82.87
2024-05-09T02:10:47.411Z,82.83
2024-05-09T02:13:17.874Z,83.03
2024-05-09T02:15:45.507Z,82.70
2024-05-09T02:18:13.477Z,83.06
2024-05-09T02:20:42.901Z,82.98
2024-05-09T02:23:11.482Z,82.60
2024-05-09T02:25:40.034Z,82.65
2024-05-09T02:28:07.409Z,82.83
2024-05-09T02:30:40.730Z,83.10
2024-05-09T02:33:12.258Z,83.29
2024-05-09T02:35:43.376Z,82.76
2024-05-09T02:38:12.104Z,82.60
2024-05-09T02:40:40.500Z,82.89
2024-05-09T02:43:10.417Z,83.10
2024-05-09T02:45:41.708Z,83.05
2024-05-09T02:48:12.516Z,83.12
2024-05-09T02:50:41.111Z,83.13
2024-05-09T02:53:09.524Z,83.37
2024-05-09T02:55:37.642Z,83.31
2024-05-09T02:58:07.681Z,83.22
2024-05-09T03:00:39.802Z,82.88
2024-05-09T03:03:14.341Z,83.17
2024-05-09T03:05:43.361Z,83.05
2024-05-09T03:08:11.424Z,82.95
2024-05-09T03:10:39.647Z,83.02
2024-05-09T03:13:07.469Z,82.60
2024-05-09T03:15:34.900Z,83.04
2024-05-09T03:18:03.075Z,83.34
2024-05-09T03:20:35.478Z,83.15
2024-05-09T03:23:05.035Z,83.31
2024-05-09T03:25:32.851Z,83.55
2024-05-09T03:28:00.170Z,83.69
2024-05-09T03:30:38.719Z,83.60
2024-05-09T03:33:10.702Z,83.35
2024-05-09T03:35:40.952Z,83.75
2024-05-09T03:38:08.445Z,83.85
2024-05-09T03:40:35.915Z,83.78
2024-05-09T03:43:03.317Z,83.75
2024-05-09T03:45:30.625Z,83.77
2024-05-09T03:47:59.178Z,83.72
2024-05-09T03:50:33.636Z,83.59
2024-05-09T03:53:05.831Z,83.95
2024-05-09T03:55:33.150Z,83.82
2024-05-09T03:58:00.499Z,83.84
2024-05-09T04:00:35.646Z,83.60
2024-05-09T04:03:08.483Z,83.74
2024-05-09T04:05:39.398Z,83.76
2024-05-09T04:08:09.853Z,84.01
2024-05-09T04:10:37.491Z,83.95
2024-05-09T04:13:05.234Z,84.08
2024-05-09T04:15:32.861Z,84.17
2024-05-09T04:18:01.112Z,83.73
2024-05-09T04:20:37.271Z,83.79
2024-05-09T04:23:12.356Z,84.22
2024-05-09T04:25:42.985Z,84.17
2024-05-09T04:28:10.535Z,84.48
2024-05-09T04:30:40.674Z,84.42
2024-05-09T04:33:11.999Z,84.12
2024-05-09T04:35:44.353Z,84.10
2024-05-09T04:38:15.603Z,84.20
2024-05-09T04:40:43.703Z,84.21
2024-05-09T04:43:15.565Z,84.34
2024-05-09T04:45:43.578Z,84.49
2024-05-09T04:48:11.578Z,84.53
2024-05-09T04:50:39.865Z,84.71
2024-05-09T04:53:10.093Z,84.52
2024-05-09T04:55:41.240Z,84.41
2024-05-09T04:58:09.298Z,83.61
2024-05-09T05:00:38.979Z,83.71
2024-05-09T05:03:10.796Z,83.20
2024-05-09T05:05:41.680Z,83.57
2024-05-09T05:08:11.827Z,83.31
2024-05-09T05:10:42.547Z,82.90
2024-05-09T05:13:18.032Z,82.60
2024-05-09T05:15:47.280Z,82.70
2024-05-09T05:18:15.150Z,82.08
2024-05-09T05:20:42.712Z,82.01
2024-05-09T05:23:13.222Z,81.88
2024-05-09T05:25:43.708Z,81.39
2024-05-09T05:28:11.457Z,81.08
2024-05-09T05:30:40.574Z,81.25
2024-05-09T05:33:11.461Z,80.81
2024-05-09T05:35:39.389Z,80.28
2024-05-09T05:38:08.774Z,80.39
2024-05-09T05:40:38.439Z,80.29
2024-05-09T05:43:17.114Z,80.00
2024-05-09T05:45:44.742Z,80.23
2024-05-09T05:48:16.019Z,80.37
2024-05-09T05:50:43.671Z,80.91
2024-05-09T05:53:11.091Z,79.92
2024-05-09T05:55:40.188Z,81.06
2024-05-09T05:58:11.817Z,83.95
2024-05-09T06:00:41.723Z,71.78
2024-05-09T06:03:11.534Z,68.29
2024-05-09T06:05:46.598Z,68.21
2024-05-09T06:08:14.424Z,68.44
2024-05-09T06:10:42.546Z,69.05
2024-05-09T06:13:14.091Z,69.98
2024-05-09T06:15:42.476Z,74.77
2024-05-09T06:18:11.476Z,68.76
2024-05-09T06:20:41.954Z,59.13
2024-05-09T06:23:10.860Z,55.68
2024-05-09T06:25:38.480Z,53.13
2024-05-09T06:28:07.006Z,51.34
2024-05-09T06:30:41.899Z,49.81
2024-05-09T06:33:14.153Z,48.77
2024-05-09T06:35:43.699Z,47.43
2024-05-09T06:38:11.823Z,47.49
2024-05-09T06:40:42.576Z,45.76
2024-05-09T06:43:11.735Z,44.95
2024-05-09T06:45:41.508Z,44.08
2024-05-09T06:48:10.105Z,43.14
2024-05-09T06:50:39.489Z,42.49
2024-05-09T06:53:07.892Z,42.39
2024-05-09T06:55:36.999Z,40.10
2024-05-09T06:58:06.991Z,40.29
2024-05-09T07:00:39.338Z,40.97
2024-05-09T07:03:14.257Z,40.91
2024-05-09T07:05:44.121Z,39.84
2024-05-09T07:08:11.872Z,38.43
2024-05-09T07:10:39.344Z,39.46
2024-05-09T07:13:09.525Z,38.42
2024-05-09T07:15:36.958Z,37.83
2024-05-09T07:18:11.095Z,37.43
2024-05-09T07:20:38.979Z,36.93
2024-05-09T07:23:08.903Z,36.91
2024-05-09T07:25:36.676Z,36.17
2024-05-09T07:28:05.408Z,35.78
2024-05-09T07:30:34.528Z,34.96
2024-05-09T07:33:04.264Z,34.89
2024-05-09T07:35:34.583Z,33.09
2024-05-09T07:38:02.048Z,33.78
2024-05-09T07:40:35.768Z,34.52
2024-05-09T07:43:04.928Z,35.30
2024-05-09T07:52:32.593Z,33.57
2024-05-09T07:55:56.216Z,33.46
2024-05-09T07:58:27.211Z,33.69
2024-05-09T08:00:55.293Z,34.47
2024-05-09T08:03:23.066Z,33.47
2024-05-09T08:05:54.327Z,33.62
2024-05-09T08:08:21.832Z,32.96
2024-05-09T08:10:49.172Z,33.03
2024-05-09T08:13:16.948Z,30.97
2024-05-09T08:15:44.341Z,31.73
2024-05-09T08:18:12.021Z,31.10
2024-05-09T08:20:41.424Z,32.27
2024-05-09T08:23:11.284Z,30.81
2024-05-09T08:25:38.852Z,30.19
2024-05-09T08:28:07.117Z,31.39
2024-05-09T08:30:37.297Z,30.51
2024-05-09T08:33:07.645Z,30.44
2024-05-09T08:35:36.011Z,30.20
2024-05-09T08:38:05.964Z,29.84
2024-05-09T08:40:37.847Z,29.70
2024-05-09T08:43:12.476Z,30.15
2024-05-09T08:45:45.119Z,30.64
2024-05-09T08:48:15.413Z,30.19
2024-05-09T08:50:44.825Z,30.15
2024-05-09T08:53:14.884Z,30.81
2024-05-09T08:55:46.284Z,30.84
2024-05-09T08:58:16.640Z,31.03
2024-05-09T09:00:46.369Z,31.96
2024-05-09T09:03:17.582Z,33.70
2024-05-09T09:05:56.172Z,33.82
2024-05-09T09:08:25.588Z,33.40
2024-05-09T09:10:58.495Z,34.56
2024-05-09T09:13:27.270Z,35.25
2024-05-09T09:15:58.466Z,33.32
2024-05-09T09:18:27.707Z,31.77
2024-05-09T09:20:55.939Z,33.64
2024-05-09T09:23:23.229Z,31.49
2024-05-09T09:25:52.979Z,32.20
2024-05-09T09:28:23.470Z,33.61
2024-05-09T09:30:51.340Z,33.15
2024-05-09T09:35:46.488Z,36.28
2024-05-09T09:38:21.306Z,37.03
2024-05-09T09:40:50.801Z,37.41
2024-05-09T09:43:20.498Z,37.84
2024-05-09T09:45:53.438Z,42.60
2024-05-09T09:48:23.007Z,41.57
2024-05-09T09:50:52.247Z,41.06
2024-05-09T09:53:20.112Z,41.21
2024-05-09T09:55:48.773Z,42.03
2024-05-09T09:58:18.139Z,41.62
2024-05-09T10:00:46.191Z,42.63
2024-05-09T10:03:16.326Z,44.37
2024-05-09T10:05:46.460Z,44.28
2024-05-09T10:08:18.143Z,43.37
2024-05-09T10:10:47.694Z,41.81
2024-05-09T10:13:16.551Z,44.19
2024-05-09T10:15:48.113Z,40.26
2024-05-09T10:18:27.062Z,39.31
2024-05-09T10:20:56.965Z,34.83
2024-05-09T10:23:28.801Z,34.11
2024-05-09T10:25:58.065Z,33.38
2024-05-09T10:28:27.151Z,34.16
2024-05-09T10:31:06.569Z,35.48
2024-05-09T10:33:45.151Z,33.98
2024-05-09T10:36:14.187Z,33.45
2024-05-09T10:38:43.604Z,32.27
2024-05-09T10:41:11.574Z,29.51
2024-05-09T10:43:43.557Z,30.93
2024-05-09T10:46:12.280Z,31.98
2024-05-09T10:48:44.385Z,34.01
2024-05-09T10:51:13.584Z,36.27
2024-05-09T10:53:42.223Z,37.35
2024-05-09T10:56:10.336Z,34.53
2024-05-09T10:58:37.813Z,34.25
2024-05-09T11:01:07.192Z,33.99
2024-05-09T11:03:35.986Z,34.64
2024-05-09T11:06:06.807Z,35.44
2024-05-09T11:08:37.051Z,36.03
2024-05-09T11:11:07.666Z,34.06
2024-05-09T11:13:38.062Z,33.56
2024-05-09T11:16:19.374Z,34.92
2024-05-09T11:18:54.843Z,34.68
2024-05-09T11:21:25.276Z,36.66
2024-05-09T11:23:53.308Z,35.84
2024-05-09T11:26:21.905Z,34.60
2024-05-09T11:28:50.541Z,36.34
2024-05-09T11:31:18.577Z,33.78
2024-05-09T11:33:46.622Z,36.36
2024-05-09T11:36:14.825Z,35.77
2024-05-09T11:38:44.917Z,35.86
2024-05-09T11:41:18.426Z,36.55
2024-05-09T11:43:45.840Z,36.20
2024-05-09T11:46:13.830Z,37.31
2024-05-09T11:48:41.781Z,37.91
2024-05-09T11:51:09.192Z,38.82
2024-05-09T11:53:36.465Z,40.23
2024-05-09T11:56:07.321Z,40.37
2024-05-09T11:58:36.742Z,39.88
2024-05-09T12:01:04.569Z,40.53
2024-05-09T12:03:32.237Z,40.15
2024-05-09T12:06:00.131Z,41.88
2024-05-09T12:08:27.761Z,42.82
2024-05-09T12:10:55.247Z,40.90
2024-05-09T12:13:25.187Z,40.60
2024-05-09T12:15:54.003Z,42.19
2024-05-09T12:18:21.388Z,42.52
2024-05-09T12:20:48.715Z,42.10
2024-05-09T12:23:16.038Z,41.67
2024-05-09T12:25:43.386Z,42.69
2024-05-09T12:28:11.108Z,43.41
2024-05-09T12:30:41.639Z,42.80
2024-05-09T12:33:11.621Z,41.61
2024-05-09T12:35:43.504Z,43.04
2024-05-09T12:38:13.945Z,43.13
2024-05-09T12:40:42.944Z,43.77
2024-05-09T12:43:11.417Z,44.63
2024-05-09T12:45:41.734Z,45.76
2024-05-09T12:48:13.234Z,45.26
2024-05-09T12:50:42.015Z,44.97
2024-05-09T12:53:09.589Z,45.29
2024-05-09T12:55:44.865Z,43.89
2024-05-09T12:58:23.900Z,44.64
2024-05-09T13:00:54.102Z,43.93
2024-05-09T13:03:22.001Z,43.47
2024-05-09T13:05:50.126Z,41.53
2024-05-09T13:08:18.063Z,43.45
2024-05-09T13:10:45.548Z,42.70
2024-05-09T13:13:13.659Z,44.49
2024-05-09T13:15:41.252Z,42.71
2024-05-09T13:18:11.139Z,42.01
2024-05-09T13:20:38.407Z,44.21
2024-05-09T13:23:08.214Z,43.79
2024-05-09T13:25:37.071Z,43.70
2024-05-09T13:28:05.962Z,42.52
2024-05-09T13:30:39.724Z,44.36
2024-05-09T13:33:13.604Z,44.17
2024-05-09T13:35:46.660Z,43.70
2024-05-09T13:38:18.457Z,44.52
2024-05-09T13:40:46.233Z,44.07
2024-05-09T13:43:14.191Z,43.60
2024-05-09T13:45:41.697Z,43.10
2024-05-09T13:48:12.096Z,43.66
2024-05-09T13:50:39.937Z,43.74
2024-05-09T13:53:08.864Z,45.20
2024-05-09T13:55:38.470Z,45.25
2024-05-09T13:58:06.858Z,45.95
2024-05-09T14:00:44.229Z,45.62
2024-05-09T14:03:20.182Z,46.24
2024-05-09T14:05:50.955Z,45.66
2024-05-09T14:08:20.097Z,45.70
2024-05-09T14:10:48.946Z,47.20
2024-05-09T14:13:17.000Z,47.15
2024-05-09T14:15:45.743Z,47.09
2024-05-09T14:18:14.505Z,47.31
2024-05-09T14:20:44.832Z,48.05
2024-05-09T14:23:12.086Z,48.40
2024-05-09T14:25:42.725Z,47.60
2024-05-09T14:28:12.643Z,47.14
2024-05-09T14:30:41.014Z,47.93
2024-05-09T14:33:09.313Z,47.26
2024-05-09T14:35:38.505Z,49.14
2024-05-09T14:38:09.932Z,48.21
2024-05-09T14:40:42.332Z,48.15
2024-05-09T14:43:12.243Z,47.22
2024-05-09T14:45:40.381Z,46.75
2024-05-09T14:48:09.335Z,48.58
2024-05-09T14:50:39.337Z,47.26
2024-05-09T14:53:12.519Z,49.10
2024-05-09T14:55:42.580Z,48.18
2024-05-09T14:58:12.672Z,49.09
2024-05-09T15:00:46.139Z,47.90
2024-05-09T15:03:17.221Z,47.27
2024-05-09T15:05:45.200Z,45.21
2024-05-09T15:08:17.319Z,44.96
2024-05-09T15:10:44.910Z,44.45
2024-05-09T15:13:14.386Z,46.17
2024-05-09T15:15:43.740Z,46.20
2024-05-09T15:18:11.390Z,46.66
2024-05-09T15:20:40.361Z,45.10
2024-05-09T15:23:08.083Z,45.94
2024-05-09T15:25:37.999Z,44.53
2024-05-09T15:28:09.857Z,45.46
2024-05-09T15:30:37.808Z,43.94
2024-05-09T15:33:07.322Z,46.28
2024-05-09T15:35:36.231Z,44.75
2024-05-09T15:38:04.594Z,44.64
2024-05-09T15:40:39.110Z,44.42
2024-05-09T15:43:11.639Z,44.69
2024-05-09T15:45:41.512Z,46.04
2024-05-09T15:48:10.569Z,47.38
2024-05-09T15:50:41.160Z,47.00
2024-05-09T15:53:10.870Z,48.57
2024-05-09T15:55:38.671Z,48.93
2024-05-09T15:58:07.297Z,48.04
2024-05-09T16:00:41.418Z,47.36
2024-05-09T16:03:12.183Z,47.47
2024-05-09T16:05:41.657Z,49.64
2024-05-09T16:08:09.916Z,49.30
2024-05-09T16:10:44.178Z,49.57
2024-05-09T16:13:12.656Z,49.39
2024-05-09T16:15:43.435Z,50.32
2024-05-09T16:18:11.740Z,49.91
2024-05-09T16:20:41.598Z,51.52
2024-05-09T16:23:11.172Z,49.92
2024-05-09T16:25:41.753Z,49.97
2024-05-09T16:28:10.845Z,50.86
2024-05-09T16:30:39.263Z,51.22
2024-05-09T16:33:11.722Z,52.39
2024-05-09T16:35:39.886Z,51.65
2024-05-09T16:38:07.634Z,52.63
2024-05-09T16:40:39.594Z,52.08
2024-05-09T16:43:09.900Z,53.07
2024-05-09T16:45:39.371Z,52.26
2024-05-09T16:48:09.862Z,52.59
2024-05-09T16:50:37.422Z,51.97
2024-05-09T16:53:06.763Z,52.32
2024-05-09T16:55:35.150Z,52.51
2024-05-09T16:58:04.622Z,52.15
2024-05-09T17:00:40.280Z,51.90
2024-05-09T17:03:15.111Z,52.55
2024-05-09T17:05:43.918Z,53.90
2024-05-09T17:08:12.249Z,53.77
2024-05-09T17:10:39.608Z,53.84
2024-05-09T17:13:08.102Z,53.70
2024-05-09T17:15:37.081Z,54.50
2024-05-09T17:18:07.234Z,54.67
2024-05-09T17:20:37.944Z,54.90
2024-05-09T17:23:13.591Z,54.61
2024-05-09T17:25:42.976Z,55.12
2024-05-09T17:28:11.700Z,55.40
2024-05-09T17:30:41.613Z,55.11
2024-05-09T17:33:11.388Z,54.86
2024-05-09T17:35:42.409Z,55.95
2024-05-09T17:38:11.540Z,54.14
2024-05-09T17:40:39.697Z,55.53
2024-05-09T17:43:09.647Z,54.76
2024-05-09T17:45:38.556Z,55.09
2024-05-09T17:48:09.423Z,54.54
2024-05-09T17:50:37.962Z,55.82
2024-05-09T17:53:09.021Z,56.33
2024-05-09T17:55:37.925Z,55.50
2024-05-09T17:58:06.072Z,55.65
2024-05-09T18:00:39.171Z,55.64
2024-05-09T18:03:13.055Z,56.14
2024-05-09T18:05:42.701Z,57.13
2024-05-09T18:08:13.897Z,57.00
2024-05-09T18:10:41.895Z,57.16
2024-05-09T18:13:10.202Z,57.81
2024-05-09T18:15:38.439Z,58.06
2024-05-09T18:18:07.102Z,58.36
2024-05-09T18:20:42.525Z,58.53
2024-05-09T18:23:17.986Z,58.55
2024-05-09T18:25:47.251Z,59.04
2024-05-09T18:28:15.563Z,59.78
2024-05-09T18:30:43.359Z,60.43
2024-05-09T18:33:11.684Z,59.81
2024-05-09T18:35:42.483Z,60.14
2024-05-09T18:38:10.344Z,61.03
2024-05-09T18:40:42.063Z,60.88
2024-05-09T18:43:11.207Z,60.94
2024-05-09T18:45:39.099Z,61.45
2024-05-09T18:48:09.669Z,61.72
2024-05-09T18:50:40.353Z,62.48
2024-05-09T18:53:10.968Z,62.31
2024-05-09T18:55:42.622Z,62.01
2024-05-09T18:58:10.331Z,62.63
2024-05-09T19:00:40.287Z,62.04
2024-05-09T19:03:12.767Z,62.35
2024-05-09T19:05:42.762Z,62.89
2024-05-09T19:08:11.366Z,62.36
2024-05-09T19:10:41.591Z,63.73
2024-05-09T19:13:12.308Z,62.62
2024-05-09T19:15:42.480Z,63.35
2024-05-09T19:18:12.073Z,63.53
2024-05-09T19:20:39.927Z,63.14
2024-05-09T19:23:07.703Z,63.53
2024-05-09T19:25:36.302Z,63.97
2024-05-09T19:28:06.958Z,63.63
2024-05-09T19:30:39.942Z,62.50
2024-05-09T19:33:12.661Z,63.69
2024-05-09T19:35:41.920Z,64.52
2024-05-09T19:38:09.414Z,64.27
2024-05-09T19:40:36.940Z,65.02
2024-05-09T19:43:07.444Z,64.99
2024-05-09T19:45:35.751Z,65.66
2024-05-09T19:48:06.112Z,65.62
2024-05-09T19:50:41.355Z,65.11
2024-05-09T19:53:12.038Z,65.30
2024-05-09T19:55:39.904Z,66.06
2024-05-09T19:58:10.435Z,66.63
2024-05-09T20:00:41.540Z,66.30
2024-05-09T20:03:11.883Z,66.84
2024-05-09T20:05:39.821Z,66.70
2024-05-09T20:08:08.143Z,67.27
2024-05-09T20:10:36.626Z,67.02
2024-05-09T20:13:07.109Z,67.51
2024-05-09T20:15:38.581Z,67.54
2024-05-09T20:18:07.090Z,67.40
2024-05-09T20:20:39.851Z,67.21
2024-05-09T20:23:10.403Z,68.04
2024-05-09T20:25:37.772Z,67.85
2024-05-09T20:28:06.282Z,68.08
2024-05-09T20:30:37.495Z,68.51
2024-05-09T20:33:08.912Z,68.35
2024-05-09T20:35:38.291Z,68.96
2024-05-09T20:38:05.705Z,68.30
2024-05-09T20:40:38.838Z,68.72
2024-05-09T20:43:08.034Z,69.64
2024-05-09T20:45:39.024Z,70.29
2024-05-09T20:48:10.011Z,69.71
2024-05-09T20:50:40.871Z,70.95
2024-05-09T20:53:11.979Z,71.01
2024-05-09T20:55:40.345Z,71.17
2024-05-09T20:58:08.425Z,71.56
2024-05-09T21:00:40.328Z,72.07
2024-05-09T21:03:15.971Z,71.82
2024-05-09T21:05:44.529Z,71.84
2024-05-09T21:08:12.015Z,72.19
2024-05-09T21:10:39.339Z,72.08
2024-05-09T21:13:07.542Z,72.69
2024-05-09T21:15:36.110Z,72.64
2024-05-09T21:18:04.420Z,73.15
2024-05-09T21:20:35.247Z,73.52
2024-05-09T21:23:03.152Z,73.26
2024-05-09T21:25:30.818Z,73.41
2024-05-09T21:27:58.545Z,73.80
2024-05-09T21:30:32.681Z,74.29
2024-05-09T21:33:08.307Z,74.37
2024-05-09T21:35:38.506Z,74.16
2024-05-09T21:38:07.176Z,74.26
2024-05-09T21:40:36.587Z,74.92
2024-05-09T21:43:06.600Z,75.02
2024-05-09T21:45:35.059Z,74.88
2024-05-09T21:48:04.478Z,75.54
2024-05-09T21:50:39.059Z,75.23
2024-05-09T21:53:12.729Z,75.89
2024-05-09T21:55:41.258Z,76.23
2024-05-09T21:58:08.785Z,76.48
2024-05-09T22:00:39.524Z,76.63
2024-05-09T22:03:08.408Z,76.93
2024-05-09T22:05:37.376Z,77.17
2024-05-09T22:08:06.626Z,77.25
2024-05-09T22:10:37.171Z,77.37
2024-05-09T22:13:06.218Z,76.75
2024-05-09T22:15:36.982Z,76.58
2024-05-09T22:18:07.448Z,76.61
2024-05-09T22:20:38.431Z,77.63
2024-05-09T22:23:07.648Z,76.46
2024-05-09T22:25:39.138Z,76.68
2024-05-09T22:28:07.418Z,76.75
2024-05-09T22:30:38.484Z,77.05
2024-05-09T22:33:08.779Z,77.29
2024-05-09T22:35:37.567Z,77.35
2024-05-09T22:38:05.414Z,76.90
2024-05-09T22:40:42.471Z,77.08
2024-05-09T22:43:20.787Z,77.19
2024-05-09T22:45:49.960Z,77.16
2024-05-09T22:48:18.376Z,76.50
2024-05-09T22:50:45.784Z,76.48
2024-05-09T22:53:13.088Z,77.46
2024-05-09T22:55:40.548Z,77.47
2024-05-09T22:58:08.211Z,77.38
2024-05-09T23:00:38.351Z,77.55
2024-05-09T23:03:06.071Z,77.80
2024-05-09T23:05:33.545Z,78.30
2024-05-09T23:08:01.783Z,77.57
2024-05-09T23:10:35.600Z,78.41
2024-05-09T23:13:06.107Z,77.97
2024-05-09T23:15:33.804Z,78.10
2024-05-09T23:18:04.190Z,78.22
2024-05-09T23:20:37.298Z,77.07
2024-05-09T23:23:07.436Z,78.13
2024-05-09T23:25:34.921Z,78.09
2024-05-09T23:28:02.825Z,78.23
2024-05-09T23:30:37.407Z,78.27
2024-05-09T23:33:12.628Z,78.69
2024-05-09T23:35:42.276Z,78.30
2024-05-09T23:38:09.613Z,78.86
2024-05-09T23:40:39.987Z,78.80
2024-05-09T23:43:09.400Z,78.05
2024-05-09T23:45:37.331Z,79.09
2024-05-09T23:48:07.136Z,78.94
2024-05-09T23:50:39.160Z,78.86
2024-05-09T23:53:09.210Z,78.76
2024-05-09T23:55:38.215Z,78.95
2024-05-09T23:58:06.402Z,78.89
